Time;durP1;ratioP1;P1;durP2;ratioP2;P2;SDS_P1;SDS_P2;PMS_P1;PMS_P2;Temp;Humidity;BMP_temperature;BMP_pressure;BME280_temperature;BME280_humidity;BME280_pressure;Samples;Min_cycle;Max_cycle;Signal;HPM_P1;HPM_P2
2021/01/15 00:01:10;;;;;;;56.53;27.02;;;-1.70;99.90;;;;;;5054045;28;20587;-76
2021/01/15 00:03:41;;;;;;;56.10;28.83;;;-1.70;99.90;;;;;;5086509;28;20044;-74
2021/01/15 00:06:07;;;;;;;51.05;27.98;;;-1.70;99.90;;;;;;5067525;28;20068;-75
2021/01/15 00:08:37;;;;;;;54.50;29.23;;;-1.70;99.90;;;;;;5078811;28;20040;-75
2021/01/15 00:11:17;;;;;;;48.10;26.63;;;-1.70;99.90;;;;;;5080382;28;20113;-75
2021/01/15 00:13:43;;;;;;;55.35;28.17;;;-1.70;99.90;;;;;;5068666;28;20490;-76
2021/01/15 00:16:17;;;;;;;52.55;28.08;;;-1.70;99.90;;;;;;5053345;28;20071;-75
2021/01/15 00:18:44;;;;;;;51.00;28.08;;;-1.70;99.90;;;;;;5066405;28;20414;-75
2021/01/15 00:21:23;;;;;;;54.63;28.30;;;-1.70;99.90;;;;;;5071784;28;20044;-74
2021/01/15 00:23:53;;;;;;;57.60;28.75;;;-1.70;99.90;;;;;;5071147;28;20539;-75
2021/01/15 00:26:22;;;;;;;50.35;27.90;;;-1.70;99.90;;;;;;5071542;28;20078;-76
2021/01/15 00:28:50;;;;;;;48.30;26.52;;;-1.70;99.90;;;;;;5061346;28;20432;-74
2021/01/15 00:31:16;;;;;;;51.13;27.33;;;-1.70;99.90;;;;;;5078717;28;20445;-74
2021/01/15 00:33:45;;;;;;;49.42;27.80;;;-1.70;99.90;;;;;;5085448;28;20048;-74
2021/01/15 00:36:13;;;;;;;53.72;27.73;;;-1.70;99.90;;;;;;5085654;28;20076;-74
2021/01/15 00:38:40;;;;;;;47.28;26.13;;;-1.70;99.90;;;;;;5080374;28;20140;-75
2021/01/15 00:41:08;;;;;;;47.30;26.88;;;-1.70;99.90;;;;;;5065675;28;20118;-74
2021/01/15 00:43:38;;;;;;;51.47;27.58;;;-1.70;99.90;;;;;;5082185;28;20063;-74
2021/01/15 00:46:07;;;;;;;48.15;26.65;;;-1.70;99.90;;;;;;5076731;28;20148;-75
2021/01/15 00:48:37;;;;;;;50.83;26.67;;;-1.80;99.90;;;;;;5078894;28;20375;-74
2021/01/15 00:51:11;;;;;;;55.75;27.23;;;-1.80;99.90;;;;;;5086003;28;20075;-75
2021/01/15 00:53:37;;;;;;;48.40;27.17;;;-1.80;99.90;;;;;;5085825;28;20052;-75
2021/01/15 00:56:04;;;;;;;50.83;25.33;;;-1.80;99.90;;;;;;5078056;28;20085;-75
2021/01/15 00:58:31;;;;;;;48.88;25.95;;;-1.80;99.90;;;;;;5085481;28;20459;-74
2021/01/15 01:00:57;;;;;;;46.35;25.17;;;-1.80;99.90;;;;;;5074340;28;20583;-75
2021/01/15 01:03:26;;;;;;;43.95;25.02;;;-1.80;99.90;;;;;;5054828;28;20906;-75
2021/01/15 01:05:52;;;;;;;45.03;25.23;;;-1.80;99.90;;;;;;5084680;28;20060;-76
2021/01/15 01:08:18;;;;;;;42.80;24.85;;;-1.70;99.90;;;;;;5067400;28;20133;-76
2021/01/15 01:10:45;;;;;;;51.22;24.65;;;-1.70;99.90;;;;;;5065691;28;20462;-75
2021/01/15 01:13:14;;;;;;;51.03;24.92;;;-1.80;99.90;;;;;;5070947;28;20347;-75
2021/01/15 01:15:42;;;;;;;46.03;25.27;;;-1.80;99.90;;;;;;5085070;28;20547;-75
2021/01/15 01:18:09;;;;;;;47.88;25.27;;;-1.80;99.90;;;;;;5052772;28;20068;-75
2021/01/15 01:20:35;;;;;;;43.05;24.50;;;-1.80;99.90;;;;;;5083379;28;20556;-75
2021/01/15 01:23:02;;;;;;;48.15;25.58;;;-1.80;99.90;;;;;;5067207;28;20506;-75
2021/01/15 01:25:29;;;;;;;41.83;23.35;;;-1.80;99.90;;;;;;5061490;28;20044;-76
2021/01/15 01:27:58;;;;;;;47.10;25.13;;;-1.80;99.90;;;;;;5047525;28;20076;-75
2021/01/15 01:30:25;;;;;;;43.17;24.73;;;-1.90;99.90;;;;;;5084305;28;20036;-76
2021/01/15 01:32:54;;;;;;;52.22;25.40;;;-1.90;99.90;;;;;;5082663;28;20047;-74
2021/01/15 01:35:23;;;;;;;48.10;24.55;;;-1.90;99.90;;;;;;5066855;28;20058;-77
2021/01/15 01:37:50;;;;;;;46.67;25.38;;;-1.90;99.90;;;;;;5072892;28;20098;-75
2021/01/15 01:40:16;;;;;;;48.58;23.88;;;-1.90;99.90;;;;;;5065587;28;20212;-76
2021/01/15 01:42:45;;;;;;;49.00;24.35;;;-1.90;99.90;;;;;;5064495;28;20051;-76
2021/01/15 01:45:12;;;;;;;42.90;24.27;;;-1.90;99.90;;;;;;5056483;28;20695;-74
2021/01/15 01:47:41;;;;;;;41.42;24.30;;;-1.80;99.90;;;;;;5079606;28;20525;-75
2021/01/15 01:50:11;;;;;;;45.13;23.70;;;-1.90;99.90;;;;;;5066376;28;20131;-77
2021/01/15 01:52:38;;;;;;;43.72;23.80;;;-1.80;99.90;;;;;;5082965;28;20425;-75
2021/01/15 01:55:05;;;;;;;40.88;23.58;;;-1.90;99.90;;;;;;5054836;28;20044;-74
2021/01/15 01:57:34;;;;;;;47.38;24.45;;;-1.80;99.90;;;;;;5057274;28;20051;-77
2021/01/15 02:00:00;;;;;;;40.58;22.25;;;-1.90;99.90;;;;;;5080536;28;20123;-76
2021/01/15 02:02:27;;;;;;;44.15;23.60;;;-1.90;99.90;;;;;;5082095;28;20119;-76
2021/01/15 02:04:57;;;;;;;39.90;22.55;;;-1.90;99.90;;;;;;5084694;28;20173;-75
2021/01/15 02:07:24;;;;;;;48.67;22.27;;;-1.90;99.90;;;;;;5083631;28;20042;-76
2021/01/15 02:09:59;;;;;;;35.60;20.40;;;-1.90;99.90;;;;;;5044818;28;20053;-75
2021/01/15 02:12:45;;;;;;;40.13;21.77;;;-1.90;99.90;;;;;;5069586;28;20048;-76
2021/01/15 02:15:24;;;;;;;37.08;21.77;;;-2.00;99.90;;;;;;5064811;28;20119;-75
2021/01/15 02:17:56;;;;;;;37.88;21.42;;;-2.00;99.90;;;;;;5074905;28;20043;-75
2021/01/15 02:20:50;;;;;;;36.28;17.13;;;-2.00;99.90;;;;;;5064690;28;20514;-76
2021/01/15 02:23:40;;;;;;;32.05;18.55;;;-2.00;99.90;;;;;;5071456;28;20050;-75
2021/01/15 02:26:44;;;;;;;31.02;17.13;;;-2.00;99.90;;;;;;5072901;28;20533;-75
2021/01/15 02:29:27;;;;;;;28.40;16.60;;;-2.00;99.90;;;;;;5080931;28;20139;-75
2021/01/15 02:32:32;;;;;;;26.02;15.95;;;-2.00;99.90;;;;;;5084122;28;20066;-75
2021/01/15 02:35:20;;;;;;;26.33;15.30;;;-2.10;99.90;;;;;;5073981;28;20044;-76
2021/01/15 02:38:21;;;;;;;25.23;14.20;;;-2.10;99.90;;;;;;5083548;28;20068;-75
2021/01/15 02:41:06;;;;;;;23.75;15.32;;;-2.10;99.90;;;;;;5075374;28;20048;-75
2021/01/15 02:43:34;;;;;;;24.52;13.65;;;-2.10;99.90;;;;;;5063792;28;20048;-77
2021/01/15 02:46:03;;;;;;;25.00;14.73;;;-2.10;99.90;;;;;;5059884;28;20131;-75
2021/01/15 02:48:31;;;;;;;25.58;13.95;;;-2.10;99.90;;;;;;5074620;28;20064;-75
2021/01/15 02:50:59;;;;;;;20.52;13.43;;;-2.10;99.90;;;;;;5088374;28;20528;-75
2021/01/15 02:53:26;;;;;;;22.08;13.77;;;-2.10;99.90;;;;;;5055625;28;20088;-76
2021/01/15 02:55:53;;;;;;;23.33;12.52;;;-2.20;99.90;;;;;;5059298;28;20147;-74
2021/01/15 02:58:19;;;;;;;27.92;11.70;;;-2.20;99.90;;;;;;5064097;28;20123;-75
2021/01/15 03:00:46;;;;;;;23.20;11.70;;;-2.20;99.90;;;;;;5067448;28;20052;-75
2021/01/15 03:03:35;;;;;;;16.67;10.98;;;-2.20;99.90;;;;;;5050053;28;20127;-74
2021/01/15 03:06:10;;;;;;;16.92;10.15;;;-2.20;99.90;;;;;;5078548;28;20051;-75
2021/01/15 03:08:41;;;;;;;17.08;9.85;;;-2.30;99.90;;;;;;5074027;28;20115;-75
2021/01/15 03:11:14;;;;;;;16.27;9.93;;;-2.30;99.90;;;;;;5087228;28;20048;-75
2021/01/15 03:13:42;;;;;;;17.92;9.77;;;-2.30;99.90;;;;;;5065672;28;20080;-75
2021/01/15 03:16:11;;;;;;;15.57;9.77;;;-2.30;99.90;;;;;;5054451;28;20049;-77
2021/01/15 03:18:38;;;;;;;12.98;8.25;;;-2.40;99.90;;;;;;5070118;28;20147;-75
2021/01/15 03:21:07;;;;;;;16.35;8.95;;;-2.40;99.90;;;;;;5069170;28;20062;-74
2021/01/15 03:23:37;;;;;;;17.42;9.80;;;-2.40;99.90;;;;;;5073597;28;20424;-76
2021/01/15 03:26:05;;;;;;;18.73;8.65;;;-2.40;99.90;;;;;;5085268;28;20151;-74
2021/01/15 03:28:31;;;;;;;14.90;9.43;;;-2.50;99.90;;;;;;5080985;28;20052;-74
2021/01/15 03:30:58;;;;;;;10.75;8.27;;;-2.50;99.90;;;;;;5087269;28;20506;-75
2021/01/15 03:33:24;;;;;;;12.25;7.85;;;-2.50;99.90;;;;;;5057503;28;20052;-75
2021/01/15 03:35:51;;;;;;;18.42;8.15;;;-2.50;99.90;;;;;;5045961;28;20563;-76
2021/01/15 03:38:18;;;;;;;14.15;8.35;;;-2.60;99.90;;;;;;5077551;28;20633;-74
2021/01/15 03:40:45;;;;;;;11.13;8.18;;;-2.60;99.90;;;;;;5049821;28;20462;-75
2021/01/15 03:43:22;;;;;;;13.50;8.07;;;-2.60;99.90;;;;;;5087403;28;20043;-74
2021/01/15 03:45:50;;;;;;;11.80;7.32;;;-2.60;99.90;;;;;;5063283;28;20048;-75
2021/01/15 03:48:21;;;;;;;12.88;7.72;;;-2.60;99.90;;;;;;5067875;28;20059;-77
2021/01/15 03:50:50;;;;;;;13.25;7.35;;;-2.60;99.90;;;;;;5086972;28;20581;-75
2021/01/15 03:53:17;;;;;;;13.32;8.40;;;-2.70;99.90;;;;;;5087356;28;20136;-76
2021/01/15 03:55:44;;;;;;;14.02;7.97;;;-2.60;99.90;;;;;;5078908;28;20047;-74
2021/01/15 03:58:13;;;;;;;14.60;8.32;;;-2.60;99.90;;;;;;5064896;28;20432;-75
2021/01/15 04:00:43;;;;;;;13.10;7.80;;;-2.70;99.90;;;;;;5066600;28;20052;-75
2021/01/15 04:03:12;;;;;;;11.27;7.95;;;-2.70;99.90;;;;;;5084996;28;20040;-75
2021/01/15 04:05:41;;;;;;;14.25;8.57;;;-2.80;99.90;;;;;;5068518;28;20068;-74
2021/01/15 04:08:12;;;;;;;;;;;-2.80;99.90;;;;;;5082767;28;20130;-73
2021/01/15 04:10:39;;;;;;;14.63;7.88;;;-2.80;99.90;;;;;;5061240;28;20010;-75
2021/01/15 04:13:05;;;;;;;10.23;7.43;;;-2.80;99.90;;;;;;5063801;28;20137;-75
2021/01/15 04:15:32;;;;;;;22.48;9.07;;;-2.90;99.90;;;;;;5065027;28;20631;-77
2021/01/15 04:18:04;;;;;;;23.60;10.40;;;-2.90;99.90;;;;;;5064275;28;20679;-74
2021/01/15 04:20:31;;;;;;;15.23;7.93;;;-2.90;99.90;;;;;;5052131;28;20041;-75
2021/01/15 04:22:58;;;;;;;12.13;7.97;;;-2.90;99.90;;;;;;5053122;28;20445;-75
2021/01/15 04:25:27;;;;;;;11.60;7.75;;;-2.90;99.90;;;;;;5065023;28;20075;-77
2021/01/15 04:27:54;;;;;;;10.48;7.10;;;-3.00;99.90;;;;;;5062699;28;20131;-74
2021/01/15 04:30:23;;;;;;;13.55;7.70;;;-3.00;99.90;;;;;;5050681;28;20129;-78
2021/01/15 04:32:50;;;;;;;13.60;7.40;;;-3.00;99.90;;;;;;5065928;28;20139;-75
2021/01/15 04:35:21;;;;;;;13.43;7.75;;;-3.00;99.90;;;;;;5048097;28;20041;-76
2021/01/15 04:37:48;;;;;;;9.77;7.20;;;-3.10;99.90;;;;;;5050047;28;20062;-76
2021/01/15 04:40:17;;;;;;;14.73;8.15;;;-3.10;99.90;;;;;;5053955;28;20068;-74
2021/01/15 04:42:45;;;;;;;12.02;7.70;;;-3.20;99.90;;;;;;5064083;28;20106;-75
2021/01/15 04:45:14;;;;;;;12.80;7.40;;;-3.20;99.90;;;;;;5066152;28;20040;-76
2021/01/15 04:47:43;;;;;;;11.90;7.78;;;-3.30;99.90;;;;;;5063550;28;20060;-75
2021/01/15 04:50:17;;;;;;;14.50;7.60;;;-3.30;99.90;;;;;;5058079;28;20188;-75
2021/01/15 04:52:52;;;;;;;10.57;7.57;;;-3.40;99.90;;;;;;5049878;28;20056;-75
2021/01/15 04:55:22;;;;;;;9.75;7.75;;;-3.40;99.90;;;;;;5056620;28;20077;-75
2021/01/15 04:57:54;;;;;;;14.95;7.68;;;-3.50;99.90;;;;;;5061937;28;20052;-75
2021/01/15 05:00:25;;;;;;;12.75;8.23;;;-3.50;99.90;;;;;;5055756;28;20045;-76
2021/01/15 05:02:53;;;;;;;12.70;6.53;;;-3.60;99.90;;;;;;5062275;28;20057;-74
2021/01/15 05:05:22;;;;;;;11.90;7.25;;;-3.60;99.90;;;;;;5054090;28;20356;-76
2021/01/15 05:08:14;;;;;;;12.02;7.18;;;-3.70;99.90;;;;;;5050757;28;20129;-79
2021/01/15 05:10:43;;;;;;;10.33;7.33;;;-3.70;99.90;;;;;;5063961;28;20048;-78
2021/01/15 05:13:12;;;;;;;15.75;8.10;;;-3.70;99.90;;;;;;5071531;28;20310;-79
2021/01/15 05:15:42;;;;;;;14.13;6.97;;;-3.70;99.90;;;;;;5058078;28;20512;-79
2021/01/15 05:18:11;;;;;;;15.18;7.45;;;-3.70;99.90;;;;;;5062030;28;20124;-79
2021/01/15 05:20:41;;;;;;;9.35;6.97;;;-3.70;99.90;;;;;;5085430;28;20196;-79
2021/01/15 05:23:08;;;;;;;12.00;7.47;;;-3.80;99.90;;;;;;5085409;28;20127;-78
2021/01/15 05:25:43;;;;;;;12.07;7.05;;;-3.80;99.90;;;;;;5061746;28;20033;-78
2021/01/15 05:28:10;;;;;;;10.57;7.60;;;-3.80;99.90;;;;;;5077758;28;20044;-78
2021/01/15 05:30:41;;;;;;;11.05;7.60;;;-3.80;99.90;;;;;;5064621;28;20066;-78
2021/01/15 05:33:12;;;;;;;12.98;8.38;;;-3.80;99.90;;;;;;5074269;28;20048;-79
2021/01/15 05:35:46;;;;;;;10.95;6.38;;;-3.90;99.90;;;;;;5064868;28;20123;-78
2021/01/15 05:38:18;;;;;;;14.88;8.38;;;-3.90;99.90;;;;;;5054390;28;20044;-78
2021/01/15 05:40:47;;;;;;;12.30;8.07;;;-3.90;99.90;;;;;;5063778;28;20125;-78
2021/01/15 05:43:24;;;;;;;13.55;8.13;;;-3.80;99.90;;;;;;5079906;28;20539;-76
2021/01/15 05:46:11;;;;;;;10.70;7.75;;;-3.80;99.90;;;;;;5065679;28;20063;-75
2021/01/15 05:48:43;;;;;;;14.45;9.05;;;-3.80;99.90;;;;;;5061982;28;20075;-75
2021/01/15 05:51:30;;;;;;;15.55;8.50;;;-3.80;99.90;;;;;;5047996;28;20049;-75
2021/01/15 05:54:00;;;;;;;16.33;8.32;;;-3.90;99.90;;;;;;5056789;28;20057;-74
2021/01/15 05:56:40;;;;;;;16.80;8.73;;;-3.90;99.90;;;;;;5082265;28;20445;-75
2021/01/15 05:59:26;;;;;;;13.52;8.52;;;-3.90;99.90;;;;;;5085610;28;20086;-75
2021/01/15 06:02:06;;;;;;;12.75;8.30;;;-3.90;99.90;;;;;;5085270;28;20040;-74
2021/01/15 06:04:38;;;;;;;13.93;9.15;;;-4.00;99.90;;;;;;5065175;28;20078;-74
2021/01/15 06:07:11;;;;;;;17.52;9.38;;;-4.00;99.90;;;;;;5065613;28;20040;-75
2021/01/15 06:09:39;;;;;;;13.50;8.52;;;-4.10;99.90;;;;;;5064840;28;20079;-74
2021/01/15 06:12:55;;;;;;;17.30;8.85;;;-4.20;99.90;;;;;;5084693;28;20098;-73
2021/01/15 06:15:48;;;;;;;16.40;8.88;;;-4.30;99.90;;;;;;5084695;28;20123;-75
2021/01/15 06:18:16;;;;;;;15.75;9.52;;;-4.30;99.90;;;;;;5082363;28;20036;-74
2021/01/15 06:20:48;;;;;;;15.70;10.23;;;-4.30;99.90;;;;;;5084525;28;20043;-75
2021/01/15 06:23:15;;;;;;;11.98;7.60;;;-4.30;99.90;;;;;;5063979;28;20051;-74
2021/01/15 06:26:02;;;;;;;18.70;9.90;;;-4.30;99.90;;;;;;5072764;28;20066;-74
2021/01/15 06:28:33;;;;;;;15.13;10.43;;;-4.40;99.90;;;;;;5052770;28;20472;-74
2021/01/15 06:31:03;;;;;;;17.92;10.15;;;-4.40;99.90;;;;;;5063415;28;20052;-73
2021/01/15 06:33:35;;;;;;;16.10;10.95;;;-4.40;99.90;;;;;;5064902;28;20103;-75
2021/01/15 06:36:04;;;;;;;16.13;11.10;;;-4.40;99.90;;;;;;5046666;28;20171;-76
2021/01/15 06:38:36;;;;;;;17.77;11.00;;;-4.30;99.90;;;;;;5068791;28;20624;-75
2021/01/15 06:41:15;;;;;;;17.85;10.02;;;-4.30;99.90;;;;;;5084513;28;20104;-75
2021/01/15 06:43:42;;;;;;;16.20;10.65;;;-4.40;99.90;;;;;;5064949;28;20040;-75
2021/01/15 06:46:18;;;;;;;18.65;12.10;;;-4.40;99.90;;;;;;5077734;28;20056;-76
2021/01/15 06:48:59;;;;;;;18.00;11.15;;;-4.50;99.90;;;;;;5080598;28;20206;-75
2021/01/15 06:51:28;;;;;;;17.88;10.60;;;-4.60;99.90;;;;;;5083949;28;20068;-75
2021/01/15 06:54:04;;;;;;;19.13;10.98;;;-4.70;99.90;;;;;;5084452;28;20056;-75
2021/01/15 06:56:38;;;;;;;21.73;12.20;;;-4.70;99.90;;;;;;5066091;28;20048;-73
2021/01/15 06:59:21;;;;;;;17.95;11.02;;;-4.70;99.90;;;;;;5057110;28;20048;-75
2021/01/15 07:02:44;;;;;;;20.58;11.75;;;-4.80;99.90;;;;;;5081507;28;20073;-72
2021/01/15 07:05:16;;;;;;;19.13;9.88;;;-4.70;99.90;;;;;;5015350;28;20052;-75
2021/01/15 07:07:45;;;;;;;20.98;13.43;;;-4.70;99.90;;;;;;5040386;28;20398;-73
2021/01/15 07:10:12;;;;;;;25.08;13.43;;;-4.60;99.90;;;;;;5082361;28;20678;-75
2021/01/15 07:12:43;;;;;;;26.25;13.98;;;-4.50;99.90;;;;;;5084629;28;20384;-75
2021/01/15 07:15:19;;;;;;;21.77;12.65;;;-4.40;99.90;;;;;;5085392;28;20154;-74
2021/01/15 07:17:56;;;;;;;20.42;12.93;;;-4.40;99.90;;;;;;5060648;28;20466;-73
2021/01/15 07:20:39;;;;;;;25.10;13.10;;;-4.40;99.90;;;;;;5063466;28;20091;-74
2021/01/15 07:23:15;;;;;;;22.48;12.43;;;-4.50;99.90;;;;;;5078719;28;20040;-75
2021/01/15 07:25:53;;;;;;;22.33;12.35;;;-4.50;99.90;;;;;;5076878;28;20146;-73
2021/01/15 07:28:27;;;;;;;20.85;12.32;;;-4.40;99.90;;;;;;5076824;28;20052;-74
2021/01/15 07:31:05;;;;;;;20.33;12.20;;;-4.40;99.90;;;;;;5058930;28;20638;-75
2021/01/15 07:33:37;;;;;;;18.83;11.55;;;-4.30;99.90;;;;;;5064493;28;20638;-74
2021/01/15 07:36:06;;;;;;;25.20;11.43;;;-4.20;99.90;;;;;;5077287;28;20071;-74
2021/01/15 07:38:37;;;;;;;19.33;10.93;;;-4.20;99.90;;;;;;5068468;28;20048;-76
2021/01/15 07:41:49;;;;;;;21.20;12.15;;;-4.20;99.90;;;;;;5057213;28;20484;-75
2021/01/15 07:44:22;;;;;;;18.88;11.68;;;-4.10;99.90;;;;;;5065967;28;20044;-76
2021/01/15 07:46:54;;;;;;;20.55;11.45;;;-4.20;99.90;;;;;;5087701;28;20118;-76
2021/01/15 07:49:42;;;;;;;27.40;13.57;;;-4.20;99.90;;;;;;5062071;28;20803;-75
2021/01/15 07:52:12;;;;;;;25.10;13.32;;;-4.10;99.90;;;;;;5084000;28;20052;-75
2021/01/15 07:55:02;;;;;;;20.67;12.18;;;-4.10;99.90;;;;;;5086914;28;20083;-76
2021/01/15 07:57:35;;;;;;;25.77;12.02;;;-4.00;99.90;;;;;;5081274;28;20040;-76
2021/01/15 08:00:27;;;;;;;21.55;12.73;;;-3.90;99.90;;;;;;5065305;28;20056;-77
2021/01/15 08:03:01;;;;;;;24.33;12.23;;;-3.90;99.90;;;;;;5085988;28;20055;-76
2021/01/15 08:05:45;;;;;;;21.15;12.00;;;-3.80;99.90;;;;;;5086715;28;20098;-73
2021/01/15 08:08:23;;;;;;;25.20;11.65;;;-3.80;99.90;;;;;;5066313;28;20390;-75
2021/01/15 08:11:17;;;;;;;18.17;10.85;;;-3.70;99.90;;;;;;5072724;28;20063;-73
2021/01/15 08:14:17;;;;;;;21.25;12.85;;;-3.60;99.90;;;;;;5043093;28;20053;-75
2021/01/15 08:17:14;;;;;;;23.08;12.27;;;-3.50;99.90;;;;;;5045206;28;20047;-73
2021/01/15 08:24:22;;;;;;;25.77;13.98;;;-3.20;99.90;;;;;;4958312;28;20062;-74
2021/01/15 08:27:22;;;;;;;26.30;14.95;;;-2.90;99.90;;;;;;5039884;28;20113;-75
2021/01/15 08:33:45;;;;;;;19.00;11.77;;;-2.50;99.90;;;;;;5029036;28;20143;-74
2021/01/15 08:36:31;;;;;;;20.20;12.18;;;-2.30;99.90;;;;;;5040661;28;20065;-74
2021/01/15 08:45:57;;;;;;;21.95;11.18;;;-1.60;99.90;;;;;;4931565;29;20066;-74
2021/01/15 08:48:34;;;;;;;20.25;11.52;;;-1.40;99.90;;;;;;4917033;29;20048;-74
2021/01/15 08:51:20;;;;;;;19.38;10.48;;;-1.20;99.90;;;;;;4942359;29;20588;-75
2021/01/15 08:54:40;;;;;;;17.58;11.73;;;-1.20;99.90;;;;;;4910983;29;20083;-76
2021/01/15 09:01:11;;;;;;;19.33;12.02;;;-1.10;99.90;;;;;;4925758;29;20060;-74
2021/01/15 09:03:50;;;;;;;28.98;13.88;;;-0.90;99.90;;;;;;4925098;29;20059;-75
2021/01/15 09:06:43;;;;;;;22.92;12.88;;;-0.80;99.90;;;;;;4928602;29;20051;-74
2021/01/15 09:09:41;;;;;;;22.20;12.65;;;-0.70;99.90;;;;;;4926321;29;20225;-75
2021/01/15 09:19:04;;;;;;;23.48;13.23;;;-0.60;99.90;;;;;;4917424;28;20058;-74
2021/01/15 09:22:17;;;;;;;29.67;14.48;;;-0.40;99.90;;;;;;4897464;29;20053;-74
2021/01/15 09:25:00;;;;;;;17.70;10.93;;;-0.50;99.90;;;;;;4894908;29;20056;-74
2021/01/15 09:27:49;;;;;;;19.45;11.10;;;-0.60;99.90;;;;;;4849599;29;20085;-75
2021/01/15 09:30:37;;;;;;;19.90;10.80;;;-0.50;99.90;;;;;;4845187;29;20076;-75
2021/01/15 09:33:30;;;;;;;22.27;11.30;;;-0.30;99.90;;;;;;4887892;29;20117;-74
2021/01/15 09:36:55;;;;;;;15.98;11.32;;;0.00;99.90;;;;;;4887419;29;20111;-74
2021/01/15 09:40:20;;;;;;;16.98;11.43;;;0.50;99.90;;;;;;4879413;29;20049;-75
2021/01/15 09:43:29;;;;;;;19.45;10.80;;;1.10;99.90;;;;;;4857873;29;20125;-74
2021/01/15 09:50:24;;;;;;;15.10;9.68;;;3.10;99.90;;;;;;4783469;29;20109;-74
2021/01/15 09:53:00;;;;;;;12.15;8.52;;;3.80;99.90;;;;;;4815910;29;20550;-74
2021/01/15 09:55:55;;;;;;;15.00;8.20;;;4.50;98.10;;;;;;4834452;29;20057;-75
2021/01/15 09:59:00;;;;;;;10.10;7.53;;;5.00;92.10;;;;;;4864367;29;20174;-75
2021/01/15 10:01:57;;;;;;;11.80;7.30;;;5.50;87.30;;;;;;4868131;29;20045;-74
2021/01/15 10:05:07;;;;;;;11.48;8.15;;;6.50;83.30;;;;;;4817370;29;20510;-75
2021/01/15 10:07:44;;;;;;;10.00;6.93;;;6.90;76.10;;;;;;4857477;29;20136;-74
2021/01/15 10:11:24;;;;;;;10.73;7.50;;;7.30;72.20;;;;;;4847171;29;20061;-75
2021/01/15 10:17:33;;;;;;;13.48;7.45;;;7.70;69.60;;;;;;4827953;29;20121;-76
2021/01/15 10:19:59;;;;;;;10.60;7.28;;;8.10;68.30;;;;;;4822396;29;20048;-74
2021/01/15 10:22:42;;;;;;;8.00;6.70;;;8.00;67.60;;;;;;4871651;29;20052;-75
2021/01/15 10:25:34;;;;;;;9.75;6.75;;;8.60;67.40;;;;;;4948458;28;20058;-75
2021/01/15 10:28:13;;;;;;;8.85;7.00;;;8.90;65.70;;;;;;4961625;28;20173;-74
2021/01/15 10:30:58;;;;;;;11.40;5.93;;;8.70;63.50;;;;;;4943656;28;20181;-75
2021/01/15 10:33:26;;;;;;;7.43;5.88;;;8.90;64.00;;;;;;4996683;28;20180;-74
2021/01/15 10:36:21;;;;;;;9.82;7.35;;;9.40;61.80;;;;;;5001796;28;20041;-76
2021/01/15 10:39:05;;;;;;;7.97;6.88;;;8.90;61.50;;;;;;5002173;28;20068;-74
2021/01/15 10:42:42;;;;;;;;;;;;;;;;;;;;;
2021/01/15 10:45:13;;;;;;;8.27;6.45;;;8.80;61.60;;;;;;5000148;28;20056;-74
2021/01/15 10:47:58;;;;;;;12.25;7.30;;;9.10;60.60;;;;;;5011708;28;20106;-74
2021/01/15 10:50:41;;;;;;;9.15;7.10;;;9.50;60.80;;;;;;5039931;28;20109;-75
2021/01/15 10:54:07;;;;;;;10.35;6.93;;;10.30;59.00;;;;;;5044900;28;20049;-74
2021/01/15 10:57:04;;;;;;;9.38;6.50;;;11.30;55.30;;;;;;5042212;28;20086;-74
2021/01/15 11:00:04;;;;;;;9.07;6.35;;;11.30;55.30;;;;;;5042060;28;20114;-74
2021/01/15 11:03:01;;;;;;;9.25;6.20;;;11.40;53.20;;;;;;4988950;28;20054;-74
2021/01/15 11:05:49;;;;;;;6.35;5.60;;;11.10;53.60;;;;;;5001392;28;20046;-75
2021/01/15 11:08:26;;;;;;;7.80;5.72;;;10.90;54.10;;;;;;5006817;28;20042;-76
2021/01/15 11:11:06;;;;;;;7.90;5.70;;;10.70;54.20;;;;;;5024847;28;20115;-75
2021/01/15 11:13:44;;;;;;;10.20;6.93;;;10.60;54.00;;;;;;5028038;28;20073;-75
2021/01/15 11:16:27;;;;;;;9.30;6.47;;;10.50;53.90;;;;;;5042676;28;20044;-74
2021/01/15 11:18:55;;;;;;;8.07;6.28;;;9.80;54.30;;;;;;5037686;28;20132;-75
2021/01/15 11:21:26;;;;;;;12.88;6.35;;;10.10;56.40;;;;;;5031214;28;20189;-75
2021/01/15 11:23:54;;;;;;;12.53;6.83;;;10.60;55.10;;;;;;5041567;28;20558;-74
2021/01/15 11:26:28;;;;;;;10.25;7.20;;;10.40;54.80;;;;;;5035210;28;20059;-76
2021/01/15 11:29:06;;;;;;;10.18;7.55;;;10.70;54.40;;;;;;5041957;28;20041;-76
2021/01/15 11:31:51;;;;;;;12.52;6.00;;;11.00;54.50;;;;;;5043495;28;20064;-75
2021/01/15 11:34:28;;;;;;;11.85;6.07;;;11.40;53.50;;;;;;5014269;28;20057;-75
2021/01/15 11:36:55;;;;;;;10.27;6.65;;;12.00;51.80;;;;;;5045849;28;20045;-75
2021/01/15 11:39:22;;;;;;;7.43;6.15;;;11.90;50.90;;;;;;5045850;28;20118;-75
2021/01/15 11:41:52;;;;;;;7.75;5.40;;;11.60;52.70;;;;;;5052406;28;20048;-75
2021/01/15 11:44:21;;;;;;;8.30;5.60;;;11.90;50.00;;;;;;5066821;28;20046;-75
2021/01/15 11:46:48;;;;;;;9.18;6.40;;;11.50;51.00;;;;;;5066290;28;20102;-75
2021/01/15 11:49:28;;;;;;;7.05;5.43;;;11.70;52.10;;;;;;5048117;28;20063;-76
2021/01/15 11:52:01;;;;;;;8.20;5.80;;;11.70;50.70;;;;;;5064670;28;20052;-75
2021/01/15 11:54:29;;;;;;;7.97;5.70;;;11.80;50.70;;;;;;5056557;28;20044;-76
2021/01/15 11:56:58;;;;;;;6.13;5.53;;;11.90;49.90;;;;;;5069450;28;20510;-75
2021/01/15 11:59:29;;;;;;;12.60;6.45;;;12.00;51.20;;;;;;5068096;28;20123;-76
2021/01/15 12:02:01;;;;;;;11.07;6.57;;;11.70;49.70;;;;;;5051992;28;20150;-74
2021/01/15 12:04:32;;;;;;;8.13;6.50;;;11.70;50.10;;;;;;5058573;28;20056;-76
2021/01/15 12:07:00;;;;;;;9.65;5.68;;;11.20;50.90;;;;;;5063475;28;20045;-75
2021/01/15 12:09:38;;;;;;;9.50;6.10;;;10.60;51.60;;;;;;5056355;28;20048;-74
2021/01/15 12:12:08;;;;;;;10.75;5.65;;;11.00;51.80;;;;;;5046782;28;20048;-75
2021/01/15 12:14:36;;;;;;;15.35;6.45;;;11.00;51.70;;;;;;5038361;28;20040;-76
2021/01/15 12:17:03;;;;;;;7.03;5.50;;;11.60;51.00;;;;;;5058161;28;20052;-74
2021/01/15 12:19:32;;;;;;;9.15;6.03;;;11.60;50.00;;;;;;5065963;28;20060;-75
2021/01/15 12:22:00;;;;;;;9.07;6.10;;;11.20;49.80;;;;;;5064259;28;20047;-74
2021/01/15 12:24:30;;;;;;;6.90;5.40;;;11.20;49.80;;;;;;5060507;28;20044;-74
2021/01/15 12:26:59;;;;;;;10.65;6.03;;;10.40;50.20;;;;;;5057719;28;20041;-76
2021/01/15 12:29:29;;;;;;;9.63;6.53;;;10.00;52.00;;;;;;5066784;28;20044;-76
2021/01/15 12:31:57;;;;;;;9.80;6.90;;;10.40;52.70;;;;;;5061485;28;20102;-75
2021/01/15 12:34:25;;;;;;;8.55;6.25;;;10.30;52.20;;;;;;5063184;28;20493;-75
2021/01/15 12:36:52;;;;;;;10.25;6.72;;;9.90;53.50;;;;;;5065447;28;20389;-76
2021/01/15 12:39:21;;;;;;;8.77;6.03;;;10.10;52.80;;;;;;5051841;28;20041;-75
2021/01/15 12:41:48;;;;;;;7.88;6.18;;;10.20;53.60;;;;;;5062120;28;20125;-75
2021/01/15 12:44:15;;;;;;;8.55;6.45;;;10.40;52.80;;;;;;5058252;28;20519;-74
2021/01/15 12:46:44;;;;;;;10.18;7.57;;;10.50;52.80;;;;;;5057084;28;20041;-75
2021/01/15 12:49:12;;;;;;;15.90;8.65;;;10.90;51.90;;;;;;5063816;28;20581;-75
2021/01/15 12:51:44;;;;;;;18.63;9.45;;;10.60;51.40;;;;;;5053951;28;20407;-74
2021/01/15 12:54:11;;;;;;;11.77;7.75;;;11.00;52.00;;;;;;5065805;28;20076;-76
2021/01/15 12:56:38;;;;;;;8.98;6.82;;;11.50;51.20;;;;;;5058061;28;20041;-75
2021/01/15 12:59:05;;;;;;;13.02;8.50;;;11.70;50.70;;;;;;5053729;28;20045;-74
2021/01/15 13:01:46;;;;;;;9.68;7.35;;;11.20;48.90;;;;;;5062169;28;20345;-77
2021/01/15 13:04:29;;;;;;;9.55;6.75;;;10.80;50.50;;;;;;5049692;28;20052;-75
2021/01/15 13:07:01;;;;;;;;;;;10.90;51.50;;;;;;5047787;28;20056;-75
2021/01/15 13:09:35;;;;;;;10.73;7.68;;;11.30;49.50;;;;;;5063559;28;19985;-74
2021/01/15 13:12:09;;;;;;;9.13;7.25;;;11.30;51.70;;;;;;5058423;28;20056;-76
2021/01/15 13:14:37;;;;;;;10.60;7.75;;;11.40;50.10;;;;;;5067878;28;20461;-75
2021/01/15 13:17:03;;;;;;;16.70;8.57;;;11.50;49.50;;;;;;5056597;28;20158;-75
2021/01/15 13:19:35;;;;;;;11.73;8.77;;;11.30;51.40;;;;;;5078200;28;20534;-77
2021/01/15 13:22:03;;;;;;;10.27;7.85;;;11.60;51.20;;;;;;5067549;28;20063;-75
2021/01/15 13:24:31;;;;;;;9.35;7.72;;;11.80;50.30;;;;;;5084997;28;20048;-75
2021/01/15 13:26:59;;;;;;;14.00;8.55;;;12.30;50.40;;;;;;5054789;28;20052;-76
2021/01/15 13:29:32;;;;;;;10.60;8.43;;;12.10;49.30;;;;;;5079386;28;20048;-73
2021/01/15 13:32:06;;;;;;;11.13;8.73;;;11.70;49.00;;;;;;5069440;28;20076;-76
2021/01/15 13:34:36;;;;;;;10.23;7.90;;;11.40;49.40;;;;;;5085775;28;20074;-74
2021/01/15 13:37:05;;;;;;;12.70;8.27;;;11.70;51.10;;;;;;5067121;28;20052;-75
2021/01/15 13:39:33;;;;;;;15.15;8.52;;;11.10;50.00;;;;;;5067893;28;20064;-76
2021/01/15 13:42:05;;;;;;;13.05;8.57;;;10.90;51.80;;;;;;5078166;28;20127;-78
2021/01/15 13:44:38;;;;;;;12.18;8.10;;;11.00;51.90;;;;;;5084847;28;20097;-75
2021/01/15 13:47:11;;;;;;;13.23;8.55;;;11.20;50.50;;;;;;5085210;28;20089;-77
2021/01/15 13:49:41;;;;;;;13.13;8.77;;;10.60;50.80;;;;;;5061663;28;20056;-74
2021/01/15 13:52:23;;;;;;;10.90;7.75;;;10.20;52.10;;;;;;5076542;28;20040;-75